createdAt,value
2018-01-20T00:00:59.673Z,4.07
2018-01-20T00:03:29.143Z,3.90
2018-01-20T00:06:00.843Z,3.93
2018-01-20T00:08:29.222Z,3.40
2018-01-20T00:11:09.647Z,3.80
2018-01-20T00:13:39.993Z,3.10
2018-01-20T00:16:11.263Z,3.43
2018-01-20T00:18:38.813Z,4.07
2018-01-20T00:21:07.595Z,3.07
2018-01-20T00:23:36.747Z,2.80
2018-01-20T00:26:10.722Z,2.83
2018-01-20T00:28:41.980Z,3.10
2018-01-20T00:31:09.619Z,3.47
2018-01-20T00:33:37.990Z,3.07
2018-01-20T00:36:09.459Z,3.13
2018-01-20T00:38:39.314Z,3.87
2018-01-20T00:41:06.956Z,3.30
2018-01-20T00:43:35.091Z,3.53
2018-01-20T00:46:02.681Z,2.90
2018-01-20T00:48:30.767Z,2.93
2018-01-20T00:50:59.922Z,2.90
2018-01-20T00:53:28.359Z,3.23
2018-01-20T00:55:57.220Z,3.00
2018-01-20T00:58:25.597Z,3.20
2018-01-20T01:00:53.127Z,3.07
2018-01-20T01:03:20.710Z,2.67
2018-01-20T01:05:49.010Z,3.00
2018-01-20T01:08:18.095Z,3.00
2018-01-20T01:10:46.535Z,2.90
2018-01-20T01:13:14.135Z,3.30
2018-01-20T01:15:42.634Z,3.87
2018-01-20T01:18:10.206Z,3.10
2018-01-20T01:20:38.193Z,3.40
2018-01-20T01:23:05.730Z,3.10
2018-01-20T01:25:33.301Z,3.20
2018-01-20T01:28:01.722Z,3.10
2018-01-20T01:30:30.087Z,3.37
2018-01-20T01:32:59.266Z,2.70
2018-01-20T01:35:28.055Z,3.00
2018-01-20T01:37:56.898Z,3.17
2018-01-20T01:40:25.383Z,3.37
2018-01-20T01:42:54.954Z,3.40
2018-01-20T01:45:22.478Z,3.97
2018-01-20T01:47:50.814Z,3.50
2018-01-20T01:50:19.550Z,3.07
2018-01-20T01:52:48.043Z,3.10
2018-01-20T01:55:16.470Z,3.50
2018-01-20T01:57:45.136Z,3.50
2018-01-20T02:00:13.611Z,3.50
2018-01-20T02:02:41.935Z,3.93
2018-01-20T02:05:10.219Z,3.90
2018-01-20T02:07:37.792Z,3.27
2018-01-20T02:10:06.092Z,3.50
2018-01-20T02:12:35.206Z,3.37
2018-01-20T02:15:06.142Z,3.57
2018-01-20T02:17:34.973Z,3.23
2018-01-20T02:20:03.601Z,3.50
2018-01-20T02:22:31.735Z,3.63
2018-01-20T02:25:00.028Z,3.70
2018-01-20T02:27:28.175Z,3.10
2018-01-20T02:29:55.700Z,3.17
2018-01-20T02:32:23.267Z,3.60
2018-01-20T02:34:52.323Z,3.30
2018-01-20T02:37:19.911Z,2.63
2018-01-20T02:39:47.443Z,3.70
2018-01-20T02:42:15.963Z,3.20
2018-01-20T02:44:44.354Z,3.27
2018-01-20T02:47:11.940Z,3.40
2018-01-20T02:49:41.850Z,3.03
2018-01-20T02:52:13.174Z,2.80
2018-01-20T02:54:42.414Z,3.00
2018-01-20T02:57:09.994Z,3.07
2018-01-20T02:59:38.228Z,3.00
2018-01-20T03:02:06.614Z,3.23
2018-01-20T03:04:35.143Z,3.40
2018-01-20T03:07:02.750Z,2.90
2018-01-20T03:09:31.432Z,2.90
2018-01-20T03:11:59.859Z,3.47
2018-01-20T03:14:27.399Z,3.30
2018-01-20T03:16:54.986Z,2.93
2018-01-20T03:19:23.094Z,2.97
2018-01-20T03:21:52.009Z,3.43
2018-01-20T03:24:20.261Z,3.20
2018-01-20T03:26:47.839Z,3.10
2018-01-20T03:29:15.383Z,2.90
2018-01-20T03:31:42.960Z,2.97
2018-01-20T03:34:10.539Z,3.00
2018-01-20T03:36:41.978Z,3.00
2018-01-20T03:39:10.545Z,2.80
2018-01-20T03:41:39.036Z,3.03
2018-01-20T03:44:07.151Z,3.17
2018-01-20T03:46:34.720Z,2.77
2018-01-20T03:49:04.094Z,2.83
2018-01-20T03:51:31.663Z,2.93
2018-01-20T03:54:01.227Z,3.47
2018-01-20T03:56:30.618Z,3.10
2018-01-20T03:58:58.696Z,3.30
2018-01-20T04:01:26.268Z,2.97
2018-01-20T04:03:53.820Z,3.13
2018-01-20T04:06:22.336Z,3.23
2018-01-20T04:08:50.462Z,3.60
2018-01-20T04:11:24.303Z,2.70
2018-01-20T04:13:51.839Z,3.20
2018-01-20T04:16:22.053Z,2.60
2018-01-20T04:18:49.579Z,3.43
2018-01-20T04:21:18.732Z,3.17
2018-01-20T04:23:48.085Z,2.80
2018-01-20T04:26:16.628Z,2.93
2018-01-20T04:28:44.167Z,3.40
2018-01-20T04:31:12.504Z,3.53
2018-01-20T04:33:40.036Z,3.10
2018-01-20T04:36:07.610Z,3.13
2018-01-20T04:38:39.594Z,3.10
2018-01-20T04:41:07.170Z,3.57
2018-01-20T04:43:34.713Z,3.20
2018-01-20T04:46:04.586Z,3.60
2018-01-20T04:48:33.030Z,3.00
2018-01-20T04:51:00.600Z,3.20
2018-01-20T04:53:29.002Z,3.30
2018-01-20T04:55:56.590Z,3.13
2018-01-20T04:58:25.597Z,3.80
2018-01-20T05:00:54.906Z,3.40
2018-01-20T05:03:23.199Z,2.97
2018-01-20T05:05:52.104Z,3.33
2018-01-20T05:08:20.403Z,2.70
2018-01-20T05:10:49.735Z,3.40
2018-01-20T05:13:17.270Z,3.37
2018-01-20T05:15:45.006Z,3.10
2018-01-20T05:18:13.376Z,3.23
2018-01-20T05:20:41.643Z,3.10
2018-01-20T05:23:09.939Z,3.23
2018-01-20T05:25:37.511Z,3.90
2018-01-20T05:28:05.812Z,3.43
2018-01-20T05:30:34.305Z,3.00
2018-01-20T05:33:01.879Z,3.33
2018-01-20T05:35:32.086Z,4.00
2018-01-20T05:38:00.383Z,3.10
2018-01-20T05:40:27.990Z,3.20
2018-01-20T05:42:56.445Z,3.50
2018-01-20T05:45:24.794Z,3.20
2018-01-20T05:47:56.994Z,3.30
2018-01-20T05:50:27.755Z,3.50
2018-01-20T05:52:55.870Z,3.70
2018-01-20T05:55:24.180Z,3.87
2018-01-20T05:57:51.718Z,3.10
2018-01-20T06:00:20.687Z,3.70
2018-01-20T06:02:49.000Z,3.17
2018-01-20T06:05:16.572Z,3.20
2018-01-20T06:07:44.878Z,3.30
2018-01-20T06:10:13.210Z,3.67
2018-01-20T06:12:42.012Z,3.40
2018-01-20T06:15:10.398Z,3.47
2018-01-20T06:17:40.546Z,3.40
2018-01-20T06:20:08.142Z,3.83
2018-01-20T06:22:36.483Z,3.43
2018-01-20T06:25:04.478Z,3.10
2018-01-20T06:27:32.007Z,3.00
2018-01-20T06:29:59.578Z,3.67
2018-01-20T06:32:27.105Z,3.00
2018-01-20T06:34:54.667Z,2.67
2018-01-20T06:37:23.047Z,3.40
2018-01-20T06:39:52.048Z,3.17
2018-01-20T06:42:20.346Z,3.33
2018-01-20T06:47:22.156Z,3.10
2018-01-20T06:49:49.715Z,3.10
2018-01-20T06:52:19.436Z,3.27
2018-01-20T06:54:50.716Z,3.33
2018-01-20T06:57:19.221Z,3.50
2018-01-20T06:59:47.730Z,3.63
2018-01-20T07:02:16.807Z,3.70
2018-01-20T07:04:44.915Z,2.93
2018-01-20T07:07:14.117Z,3.60
2018-01-20T07:09:43.034Z,3.83
2018-01-20T07:12:10.899Z,3.43
2018-01-20T07:14:38.795Z,4.20
2018-01-20T07:17:07.520Z,3.73
2018-01-20T07:19:35.096Z,3.20
2018-01-20T07:22:02.658Z,3.70
2018-01-20T07:24:31.115Z,4.23
2018-01-20T07:26:59.613Z,3.37
2018-01-20T07:29:27.967Z,3.80
2018-01-20T07:31:56.368Z,3.33
2018-01-20T07:34:25.543Z,3.60
2018-01-20T07:36:54.055Z,4.10
2018-01-20T07:39:22.372Z,3.40
2018-01-20T07:41:51.427Z,3.90
2018-01-20T07:44:19.859Z,3.60
2018-01-20T07:46:47.389Z,3.67
2018-01-20T07:49:15.767Z,3.20
2018-01-20T07:51:43.310Z,3.73
2018-01-20T07:54:11.838Z,3.70
2018-01-20T07:56:39.374Z,3.80
2018-01-20T07:59:07.751Z,3.47
2018-01-20T08:01:36.171Z,3.30
2018-01-20T08:04:06.169Z,3.70
2018-01-20T08:06:35.391Z,3.40
2018-01-20T08:09:05.458Z,2.90
2018-01-20T08:11:32.996Z,3.80
2018-01-20T08:14:01.916Z,3.80
2018-01-20T08:16:32.457Z,3.53
2018-01-20T08:19:00.854Z,3.10
2018-01-20T08:21:28.766Z,3.40
2018-01-20T08:23:57.154Z,3.60
2018-01-20T08:26:24.743Z,3.50
2018-01-20T08:28:52.297Z,3.40
2018-01-20T08:31:21.039Z,3.30
2018-01-20T08:33:53.511Z,3.23
2018-01-20T08:36:21.879Z,2.80
2018-01-20T08:38:50.287Z,2.60
2018-01-20T08:41:18.394Z,3.20
2018-01-20T08:43:47.126Z,3.10
2018-01-20T08:46:14.969Z,3.20
2018-01-20T08:48:42.550Z,3.33
2018-01-20T08:51:10.077Z,2.97
2018-01-20T08:53:38.199Z,3.23
2018-01-20T08:56:06.691Z,3.40
2018-01-20T08:58:35.187Z,2.87
2018-01-20T09:01:02.726Z,3.60
2018-01-20T09:03:32.482Z,3.17
2018-01-20T09:06:00.732Z,2.67
2018-01-20T09:08:29.235Z,2.90
2018-01-20T09:10:56.769Z,3.60
2018-01-20T09:13:24.338Z,2.80
2018-01-20T09:15:53.298Z,3.20
2018-01-20T09:18:20.875Z,2.60
2018-01-20T09:20:49.422Z,3.07
2018-01-20T09:23:18.205Z,2.63
2018-01-20T09:25:47.176Z,2.67
2018-01-20T09:28:15.547Z,2.60
2018-01-20T09:30:43.075Z,2.57
2018-01-20T09:33:10.656Z,2.43
2018-01-20T09:35:38.948Z,2.60
2018-01-20T09:38:07.814Z,3.43
2018-01-20T09:40:37.223Z,3.10
2018-01-20T09:43:05.749Z,2.60
2018-01-20T09:45:34.028Z,2.73
2018-01-20T09:48:02.378Z,3.20
2018-01-20T09:50:33.571Z,2.57
2018-01-20T09:53:01.545Z,3.23
2018-01-20T09:55:29.852Z,2.97
2018-01-20T09:57:57.422Z,3.40
2018-01-20T10:00:25.783Z,3.37
2018-01-20T10:02:54.134Z,3.00
2018-01-20T10:05:22.876Z,2.83
2018-01-20T10:07:51.519Z,2.40
2018-01-20T10:10:19.051Z,3.03
2018-01-20T10:12:47.419Z,2.80
2018-01-20T10:15:15.592Z,2.63
2018-01-20T10:17:43.919Z,2.20
2018-01-20T10:20:12.275Z,2.30
2018-01-20T10:22:41.345Z,2.30
2018-01-20T10:25:09.615Z,2.67
2018-01-20T10:27:39.374Z,1.97
2018-01-20T10:30:07.841Z,2.20
2018-01-20T10:32:37.988Z,2.17
2018-01-20T10:35:06.338Z,2.10
2018-01-20T10:37:35.911Z,2.60
2018-01-20T10:40:04.125Z,2.40
2018-01-20T10:42:33.951Z,2.40
2018-01-20T10:45:03.191Z,2.70
2018-01-20T10:47:31.777Z,2.30
2018-01-20T10:50:00.521Z,2.73
2018-01-20T10:52:29.483Z,2.20
2018-01-20T10:54:58.619Z,2.23
2018-01-20T10:57:26.191Z,2.40
2018-01-20T10:59:53.749Z,2.13
2018-01-20T11:02:22.614Z,2.20
2018-01-20T11:04:53.347Z,1.80
2018-01-20T11:07:22.523Z,2.20
2018-01-20T11:09:50.191Z,2.30
2018-01-20T11:12:18.851Z,1.60
2018-01-20T11:14:47.392Z,2.30
2018-01-20T11:17:14.965Z,2.40
2018-01-20T11:19:44.559Z,2.10
2018-01-20T11:22:15.125Z,2.20
2018-01-20T11:24:43.407Z,2.47
2018-01-20T11:27:11.844Z,2.40
2018-01-20T11:29:40.348Z,2.33
2018-01-20T11:32:08.426Z,2.20
2018-01-20T11:34:35.990Z,2.50
2018-01-20T11:37:04.514Z,2.40
2018-01-20T11:39:33.046Z,2.37
2018-01-20T11:42:00.577Z,2.30
2018-01-20T11:44:29.334Z,2.50
2018-01-20T11:46:56.863Z,2.80
2018-01-20T11:49:25.203Z,2.77
2018-01-20T11:51:53.571Z,2.10
2018-01-20T11:54:21.762Z,2.70
2018-01-20T11:56:50.281Z,2.37
2018-01-20T11:59:17.990Z,2.17
2018-01-20T12:01:47.155Z,2.13
2018-01-20T12:04:15.548Z,2.43
2018-01-20T12:06:45.143Z,2.00
2018-01-20T12:09:17.164Z,1.90
2018-01-20T12:11:45.383Z,2.40
2018-01-20T12:14:13.795Z,2.10
2018-01-20T12:16:42.813Z,2.47
2018-01-20T12:19:10.417Z,2.27
2018-01-20T12:21:39.223Z,1.80
2018-01-20T12:24:06.759Z,2.40
2018-01-20T12:26:35.555Z,2.07
2018-01-20T12:29:03.100Z,2.70
2018-01-20T12:31:32.511Z,2.17
2018-01-20T12:34:01.309Z,2.60
2018-01-20T12:36:30.058Z,2.23
2018-01-20T12:38:58.342Z,2.10
2018-01-20T12:41:25.878Z,2.43
2018-01-20T12:43:55.165Z,2.23
2018-01-20T12:46:22.742Z,2.50
2018-01-20T12:48:51.190Z,2.50
2018-01-20T12:51:20.423Z,2.90
2018-01-20T12:53:51.503Z,3.40
2018-01-20T12:56:20.018Z,2.63
2018-01-20T12:58:50.254Z,2.90
2018-01-20T13:01:18.443Z,2.80
2018-01-20T13:03:46.648Z,2.60
2018-01-20T13:06:18.458Z,3.20
2018-01-20T13:08:47.727Z,3.00
2018-01-20T13:11:16.247Z,2.73
2018-01-20T13:13:44.654Z,2.53
2018-01-20T13:16:12.914Z,2.40
2018-01-20T13:18:40.474Z,2.50
2018-01-20T13:23:43.795Z,2.33
2018-01-20T13:26:12.020Z,2.17
2018-01-20T13:28:43.249Z,2.53
2018-01-20T13:31:11.464Z,2.50
2018-01-20T13:33:44.448Z,3.10
2018-01-20T13:36:12.814Z,8.47
2018-01-20T13:38:41.126Z,3.30
2018-01-20T13:41:09.563Z,3.20
2018-01-20T13:43:37.141Z,3.57
2018-01-20T13:46:04.704Z,2.83
2018-01-20T13:48:34.094Z,2.93
2018-01-20T13:51:01.643Z,3.47
2018-01-20T13:53:29.232Z,2.83
2018-01-20T13:55:56.780Z,3.00
2018-01-20T13:58:24.349Z,3.00
2018-01-20T14:00:52.556Z,3.17
2018-01-20T14:03:20.774Z,3.07
2018-01-20T14:05:49.089Z,3.40
2018-01-20T14:08:17.252Z,2.50
2018-01-20T14:10:45.559Z,2.90
2018-01-20T14:13:13.146Z,3.17
2018-01-20T14:15:40.707Z,3.17
2018-01-20T14:18:12.071Z,2.77
2018-01-20T14:20:39.600Z,2.93
2018-01-20T14:23:07.755Z,2.70
2018-01-20T14:25:35.329Z,2.67
2018-01-20T14:28:04.050Z,2.80
2018-01-20T14:30:32.496Z,2.47
2018-01-20T14:33:00.024Z,2.20
2018-01-20T14:35:28.424Z,2.63
2018-01-20T14:37:56.830Z,2.87
2018-01-20T14:40:25.699Z,2.80
2018-01-20T14:42:59.760Z,2.50
2018-01-20T14:45:35.717Z,2.40
2018-01-20T14:48:06.107Z,2.20
2018-01-20T14:50:36.302Z,2.60
2018-01-20T14:53:04.693Z,2.60
2018-01-20T14:55:32.920Z,2.23
2018-01-20T14:58:06.379Z,2.50
2018-01-20T15:00:34.740Z,2.33
2018-01-20T15:03:02.653Z,2.37
2018-01-20T15:05:31.171Z,2.87
2018-01-20T15:08:01.581Z,2.57
2018-01-20T15:10:29.176Z,3.03
2018-01-20T15:37:58.981Z,2.40
2018-01-20T15:40:28.261Z,2.43
2018-01-20T15:42:55.800Z,2.80
2018-01-20T15:45:23.407Z,3.00
2018-01-20T15:47:53.994Z,2.40
2018-01-20T15:50:23.018Z,2.20
2018-01-20T15:52:53.284Z,2.10
2018-01-20T15:55:20.844Z,2.13
2018-01-20T15:57:49.176Z,2.50
2018-01-20T16:00:20.430Z,2.40
2018-01-20T16:02:48.518Z,2.10
2018-01-20T16:05:16.928Z,2.00
2018-01-20T16:07:46.659Z,2.43
2018-01-20T16:10:15.509Z,2.40
2018-01-20T16:12:44.563Z,1.83
2018-01-20T16:15:12.155Z,2.33
2018-01-20T16:17:39.693Z,2.20
2018-01-20T16:20:08.081Z,1.90
2018-01-20T16:22:37.041Z,1.83
2018-01-20T16:25:06.759Z,1.70
2018-01-20T16:27:35.128Z,2.10
2018-01-20T16:30:02.811Z,2.20
2018-01-20T16:32:30.394Z,1.80
2018-01-20T16:34:58.006Z,1.90
2018-01-20T16:37:26.558Z,2.33
2018-01-20T16:39:56.028Z,2.00
2018-01-20T16:42:24.102Z,2.27
2018-01-20T16:44:52.400Z,1.73
2018-01-20T16:47:22.555Z,2.10
2018-01-20T16:49:50.941Z,2.10
2018-01-20T16:52:19.550Z,2.00
2018-01-20T16:54:47.944Z,2.20
2018-01-20T16:57:16.443Z,1.90
2018-01-20T16:59:45.799Z,1.90
2018-01-20T17:02:13.379Z,3.30
2018-01-20T17:04:42.905Z,2.10
2018-01-20T17:07:11.201Z,1.97
2018-01-20T17:09:38.778Z,2.20
2018-01-20T17:12:06.306Z,1.80
2018-01-20T17:14:34.617Z,1.90
2018-01-20T17:17:02.150Z,2.30
2018-01-20T17:19:31.206Z,2.10
2018-01-20T17:22:00.436Z,2.40
2018-01-20T17:24:28.020Z,2.10
2018-01-20T17:26:56.414Z,2.43
2018-01-20T17:29:26.039Z,2.50
2018-01-20T17:31:54.357Z,2.30
2018-01-20T17:34:22.798Z,2.10
2018-01-20T17:36:51.123Z,2.20
2018-01-20T17:39:18.648Z,2.20
2018-01-20T17:41:47.929Z,2.20
2018-01-20T17:44:17.031Z,2.00
2018-01-20T17:46:45.995Z,2.10
2018-01-20T17:49:15.455Z,2.60
2018-01-20T17:51:43.083Z,2.60
2018-01-20T17:54:16.688Z,2.50
2018-01-20T17:56:47.410Z,2.70
2018-01-20T17:59:16.703Z,2.60
2018-01-20T18:01:45.049Z,3.10
2018-01-20T18:04:17.300Z,2.87
2018-01-20T18:06:44.942Z,2.07
2018-01-20T18:09:13.274Z,2.47
2018-01-20T18:11:40.922Z,2.50
2018-01-20T18:14:09.447Z,2.13
2018-01-20T18:16:37.034Z,2.67
2018-01-20T18:19:06.722Z,2.50
2018-01-20T18:21:37.655Z,3.00
2018-01-20T18:24:05.234Z,3.30
2018-01-20T18:26:33.548Z,2.87
2018-01-20T18:29:01.296Z,2.40
2018-01-20T18:31:28.865Z,2.73
2018-01-20T18:33:56.825Z,3.23
2018-01-20T18:36:24.404Z,3.20
2018-01-20T18:38:52.734Z,3.00
2018-01-20T18:41:23.264Z,3.63
2018-01-20T18:43:50.791Z,3.00
2018-01-20T18:46:19.166Z,2.70
2018-01-20T18:48:46.700Z,3.83
2018-01-20T18:51:14.886Z,3.77
2018-01-20T18:53:42.417Z,3.23
2018-01-20T18:56:13.451Z,3.77
2018-01-20T18:58:42.701Z,3.50
2018-01-20T19:01:11.997Z,3.77
2018-01-20T19:03:44.459Z,3.67
2018-01-20T19:06:12.821Z,3.90
2018-01-20T19:08:40.393Z,3.53
2018-01-20T19:11:07.922Z,3.23
2018-01-20T19:13:37.538Z,3.23
2018-01-20T19:16:05.895Z,3.50
2018-01-20T19:18:35.590Z,2.83
2018-01-20T19:21:04.083Z,3.30
2018-01-20T19:23:32.504Z,3.37
2018-01-20T19:26:00.875Z,4.03
2018-01-20T19:28:29.023Z,3.80
2018-01-20T19:31:00.259Z,3.10
2018-01-20T19:33:27.839Z,3.50
2018-01-20T19:35:55.380Z,3.27
2018-01-20T19:38:25.768Z,2.90
2018-01-20T19:40:54.379Z,2.90
2018-01-20T19:43:22.739Z,2.90
2018-01-20T19:45:51.523Z,3.23
2018-01-20T19:48:21.297Z,3.40
2018-01-20T19:50:49.634Z,3.17
2018-01-20T19:53:19.065Z,3.27
2018-01-20T19:55:47.434Z,3.53
2018-01-20T19:58:15.979Z,3.50
2018-01-20T20:00:45.827Z,3.00
2018-01-20T20:03:13.406Z,2.87
2018-01-20T20:05:40.949Z,2.90
2018-01-20T20:08:09.909Z,2.80
2018-01-20T20:10:38.362Z,2.87
2018-01-20T20:13:08.000Z,3.27
2018-01-20T20:15:36.288Z,2.60
2018-01-20T20:18:04.762Z,2.80
2018-01-20T20:20:32.318Z,2.93
2018-01-20T20:23:03.589Z,3.00
2018-01-20T20:25:32.558Z,3.80
2018-01-20T20:28:00.799Z,3.13
2018-01-20T20:30:30.082Z,3.73
2018-01-20T20:32:58.332Z,3.80
2018-01-20T20:35:26.898Z,3.53
2018-01-20T20:37:56.775Z,3.67
2018-01-20T20:40:24.404Z,4.10
2018-01-20T20:42:51.974Z,4.00
2018-01-20T20:45:20.762Z,3.80
2018-01-20T20:47:49.161Z,3.37
2018-01-20T20:50:17.624Z,3.07
2018-01-20T20:52:50.330Z,3.30
2018-01-20T20:55:18.507Z,2.70
2018-01-20T20:57:46.087Z,3.20
2018-01-20T21:00:13.669Z,3.50
2018-01-20T21:02:42.064Z,3.73
2018-01-20T21:05:10.534Z,3.77
2018-01-20T21:07:39.448Z,3.73
2018-01-20T21:10:07.103Z,3.67
2018-01-20T21:12:36.170Z,3.70
2018-01-20T21:15:03.752Z,4.50
2018-01-20T21:17:31.903Z,4.30
2018-01-20T21:20:02.427Z,4.03
2018-01-20T21:22:30.763Z,4.60
2018-01-20T21:24:59.014Z,4.40
2018-01-20T21:27:26.604Z,4.57
2018-01-20T21:29:55.617Z,4.90
2018-01-20T21:32:27.089Z,4.67
2018-01-20T21:34:56.445Z,4.97
2018-01-20T21:37:24.793Z,4.40
2018-01-20T21:39:54.266Z,4.80
2018-01-20T21:42:21.840Z,4.63
2018-01-20T21:44:51.135Z,4.90
2018-01-20T21:47:18.703Z,4.63
2018-01-20T21:49:46.289Z,3.93
2018-01-20T21:52:14.732Z,4.60
2018-01-20T21:54:43.030Z,4.00
2018-01-20T21:57:13.784Z,4.00
2018-01-20T21:59:42.959Z,3.63
2018-01-20T22:02:12.795Z,4.00
2018-01-20T22:04:46.550Z,4.67
2018-01-20T22:07:16.661Z,4.43
2018-01-20T22:09:46.458Z,4.67
2018-01-20T22:14:51.817Z,4.70
2018-01-20T22:17:20.343Z,3.70
2018-01-20T22:19:47.926Z,4.60
2018-01-20T22:22:16.155Z,4.77
2018-01-20T22:24:45.111Z,4.67
2018-01-20T22:27:12.654Z,4.53
2018-01-20T22:29:40.278Z,4.50
2018-01-20T22:32:08.641Z,4.47
2018-01-20T22:34:36.211Z,3.63
2018-01-20T22:37:03.738Z,4.40
2018-01-20T22:39:31.967Z,5.80
2018-01-20T22:42:01.037Z,3.37
2018-01-20T22:44:28.591Z,3.43
2018-01-20T22:46:56.889Z,3.50
2018-01-20T22:49:25.270Z,3.20
2018-01-20T22:51:53.574Z,3.20
2018-01-20T22:54:25.546Z,2.80
2018-01-20T22:56:55.697Z,2.90
2018-01-20T22:59:26.136Z,3.20
2018-01-20T23:01:56.341Z,3.20
2018-01-20T23:04:23.916Z,3.20
2018-01-20T23:06:52.705Z,3.13
2018-01-20T23:09:20.275Z,3.73
2018-01-20T23:11:47.865Z,3.20
2018-01-20T23:14:15.387Z,3.50
2018-01-20T23:16:43.515Z,3.43
2018-01-20T23:19:11.141Z,3.10
2018-01-20T23:21:39.256Z,3.30
2018-01-20T23:24:06.849Z,3.27
2018-01-20T23:26:34.392Z,3.43
2018-01-20T23:29:01.958Z,3.10
2018-01-20T23:31:29.745Z,3.50
2018-01-20T23:33:58.184Z,3.50
2018-01-20T23:36:26.516Z,3.83
2018-01-20T23:38:54.125Z,3.40
2018-01-20T23:41:22.655Z,3.60
2018-01-20T23:43:51.478Z,3.80
2018-01-20T23:46:19.003Z,4.10
2018-01-20T23:48:47.713Z,4.40
2018-01-20T23:51:16.071Z,3.77
2018-01-20T23:53:43.651Z,4.10
2018-01-20T23:56:12.083Z,4.17
2018-01-20T23:58:41.223Z,4.30
